Time;durP1;ratioP1;P1;durP2;ratioP2;P2;SDS_P1;SDS_P2;PMS_P1;PMS_P2;Temp;Humidity;BMP_temperature;BMP_pressure;BME280_temperature;BME280_humidity;BME280_pressure;Samples;Min_cycle;Max_cycle;Signal;HPM_P1;HPM_P2
2022/03/26 00:01:31;;;;;;;0.68;0.68;;;4.30;99.90;;;;;;4994039;28;20045;-72
2022/03/26 00:03:57;;;;;;;1.23;1.23;;;4.30;99.90;;;;;;5011392;28;20087;-71
2022/03/26 00:06:22;;;;;;;1.65;1.58;;;4.30;99.90;;;;;;5010645;28;20108;-71
2022/03/26 00:08:49;;;;;;;0.95;0.93;;;4.20;99.90;;;;;;5011589;28;20417;-72
2022/03/26 00:11:15;;;;;;;4.85;3.50;;;4.20;99.90;;;;;;5000967;28;20463;-72
2022/03/26 00:13:41;;;;;;;0.40;0.40;;;4.20;99.90;;;;;;4999243;28;20050;-72
2022/03/26 00:16:06;;;;;;;1.60;1.60;;;4.20;99.90;;;;;;4990619;28;20034;-72
2022/03/26 00:18:32;;;;;;;1.13;1.13;;;4.30;99.90;;;;;;5011478;28;20033;-72
2022/03/26 00:20:57;;;;;;;0.82;0.82;;;4.20;99.90;;;;;;4994826;28;20044;-72
2022/03/26 00:23:23;;;;;;;0.77;0.77;;;4.20;99.90;;;;;;5010643;28;20034;-72
2022/03/26 00:25:49;;;;;;;2.28;2.17;;;4.20;99.90;;;;;;5007701;28;20124;-72
2022/03/26 00:28:14;;;;;;;3.30;3.10;;;4.20;99.90;;;;;;5007887;28;20557;-72
2022/03/26 00:30:40;;;;;;;0.30;0.30;;;4.20;99.90;;;;;;5007149;28;20486;-72
2022/03/26 00:33:06;;;;;;;2.90;2.75;;;4.20;99.90;;;;;;5023279;28;20041;-72
2022/03/26 00:35:31;;;;;;;5.97;1.25;;;4.20;99.90;;;;;;4991380;28;20042;-72
2022/03/26 00:37:57;;;;;;;1.30;1.30;;;4.20;99.90;;;;;;5005219;28;20053;-72
2022/03/26 00:40:23;;;;;;;0.40;0.40;;;4.10;99.90;;;;;;5007951;28;20052;-72
2022/03/26 00:42:49;;;;;;;0.40;0.40;;;4.10;99.90;;;;;;4990987;28;20057;-72
2022/03/26 00:45:14;;;;;;;0.40;0.40;;;4.10;99.90;;;;;;5004534;28;20042;-72
2022/03/26 00:47:40;;;;;;;0.40;0.40;;;4.10;99.90;;;;;;5007973;28;20104;-72
2022/03/26 00:50:06;;;;;;;0.40;0.40;;;4.10;99.90;;;;;;4990706;28;20038;-71
2022/03/26 00:52:32;;;;;;;1.40;1.30;;;4.00;99.90;;;;;;5007795;28;20093;-72
2022/03/26 00:54:58;;;;;;;0.40;0.40;;;3.90;99.90;;;;;;5006657;28;20425;-72
2022/03/26 00:57:23;;;;;;;2.10;2.00;;;3.90;99.90;;;;;;5007508;28;20080;-72
2022/03/26 00:59:49;;;;;;;2.35;2.25;;;3.80;99.90;;;;;;4991553;28;20045;-72
2022/03/26 01:02:15;;;;;;;0.30;0.30;;;3.70;99.90;;;;;;5006915;28;20424;-72
2022/03/26 01:04:40;;;;;;;0.60;0.60;;;3.70;99.90;;;;;;4990087;28;20049;-72
2022/03/26 01:07:06;;;;;;;1.15;1.15;;;3.60;99.90;;;;;;4986694;28;20038;-72
2022/03/26 01:09:32;;;;;;;1.55;1.48;;;3.60;99.90;;;;;;5005837;28;20096;-72
2022/03/26 01:11:57;;;;;;;0.50;0.50;;;3.60;99.90;;;;;;5007345;28;20409;-72
2022/03/26 01:14:23;;;;;;;3.95;2.40;;;3.50;99.90;;;;;;4988222;28;20046;-71
2022/03/26 01:16:49;;;;;;;0.40;0.40;;;3.50;99.90;;;;;;5001868;28;20085;-71
2022/03/26 01:19:15;;;;;;;0.30;0.30;;;3.40;99.90;;;;;;5003001;28;20520;-71
2022/03/26 01:21:41;;;;;;;4.53;4.13;;;3.40;99.90;;;;;;5007005;28;20046;-72
2022/03/26 01:24:07;;;;;;;2.47;1.83;;;3.40;99.90;;;;;;4990707;28;20054;-71
2022/03/26 01:26:33;;;;;;;19.77;2.00;;;3.30;99.90;;;;;;5010771;28;20123;-72
2022/03/26 01:28:58;;;;;;;5.68;4.80;;;3.30;99.90;;;;;;4991856;28;20038;-72
2022/03/26 01:31:25;;;;;;;1.77;1.67;;;3.20;99.90;;;;;;5007934;28;20141;-71
2022/03/26 01:33:50;;;;;;;1.00;1.00;;;3.20;99.90;;;;;;4994249;28;20152;-71
2022/03/26 01:36:16;;;;;;;0.60;0.60;;;3.20;99.90;;;;;;4993330;28;20196;-71
2022/03/26 01:38:42;;;;;;;0.60;0.60;;;3.10;99.90;;;;;;4994359;28;20493;-71
2022/03/26 01:41:08;;;;;;;0.40;0.40;;;3.10;99.90;;;;;;4994373;28;20081;-71
2022/03/26 01:43:34;;;;;;;0.40;0.40;;;3.00;99.90;;;;;;4994735;28;20069;-71
2022/03/26 01:45:59;;;;;;;0.40;0.40;;;3.00;99.90;;;;;;5007432;28;20046;-71
2022/03/26 01:48:25;;;;;;;0.50;0.50;;;3.00;99.90;;;;;;5007418;28;20093;-71
2022/03/26 01:50:51;;;;;;;2.65;2.45;;;2.90;99.90;;;;;;5011567;28;20038;-71
2022/03/26 01:53:17;;;;;;;0.85;0.85;;;2.90;99.90;;;;;;4991765;28;20077;-71
2022/03/26 01:55:42;;;;;;;2.47;2.33;;;2.90;99.90;;;;;;4993436;28;20042;-71
2022/03/26 01:58:09;;;;;;;0.85;0.82;;;2.80;99.90;;;;;;5010511;28;20095;-71
2022/03/26 02:00:35;;;;;;;0.40;0.40;;;2.80;99.90;;;;;;4991159;28;20038;-72
2022/03/26 02:03:02;;;;;;;1.77;1.70;;;2.80;99.90;;;;;;4997309;28;20064;-71
2022/03/26 02:05:29;;;;;;;1.83;1.73;;;2.70;99.90;;;;;;5010703;28;20034;-72
2022/03/26 02:07:54;;;;;;;0.65;0.65;;;2.70;99.90;;;;;;4993909;28;20077;-71
2022/03/26 02:10:20;;;;;;;2.15;2.05;;;2.60;99.90;;;;;;5010012;28;20049;-71
2022/03/26 02:12:47;;;;;;;0.50;0.50;;;2.60;99.90;;;;;;5010831;28;20100;-72
2022/03/26 02:15:13;;;;;;;9.75;2.40;;;2.50;99.90;;;;;;4990399;28;20137;-71
2022/03/26 02:17:39;;;;;;;0.60;0.60;;;2.50;99.90;;;;;;4992652;28;20072;-71
2022/03/26 02:20:10;;;;;;;0.40;0.40;;;2.50;99.90;;;;;;5010478;28;20069;-71
2022/03/26 02:22:37;;;;;;;0.50;0.50;;;2.50;99.90;;;;;;5006556;28;20687;-71
2022/03/26 02:25:03;;;;;;;1.88;1.77;;;2.50;99.90;;;;;;5002936;28;20050;-71
2022/03/26 02:27:30;;;;;;;3.42;1.75;;;2.50;99.90;;;;;;5010440;28;20045;-71
2022/03/26 02:29:56;;;;;;;3.38;3.08;;;2.40;99.90;;;;;;4991745;28;20038;-71
2022/03/26 02:32:23;;;;;;;2.08;1.98;;;2.40;99.90;;;;;;5009709;28;20120;-71
2022/03/26 02:34:50;;;;;;;0.75;0.75;;;2.30;99.90;;;;;;5008973;28;20096;-72
2022/03/26 02:37:16;;;;;;;1.10;1.10;;;2.30;99.90;;;;;;5008567;28;20049;-71
2022/03/26 02:39:42;;;;;;;1.95;1.85;;;2.30;99.90;;;;;;5009068;28;20041;-71
2022/03/26 02:42:08;;;;;;;1.20;1.20;;;2.20;99.90;;;;;;4993548;28;20161;-71
2022/03/26 02:44:34;;;;;;;5.13;4.60;;;2.20;99.90;;;;;;4992269;28;20050;-71
2022/03/26 02:46:59;;;;;;;0.70;0.70;;;2.20;99.90;;;;;;4993066;28;20030;-71
2022/03/26 02:49:25;;;;;;;0.68;0.68;;;2.20;99.90;;;;;;5009847;28;20453;-71
2022/03/26 02:51:50;;;;;;;1.13;1.13;;;2.20;99.90;;;;;;4991775;28;20517;-72
2022/03/26 02:54:19;;;;;;;1.55;1.55;;;2.20;99.90;;;;;;5003007;28;20082;-72
2022/03/26 02:56:49;;;;;;;0.40;0.40;;;2.20;99.90;;;;;;5006032;28;20049;-71
2022/03/26 02:59:16;;;;;;;6.10;5.57;;;2.20;99.90;;;;;;5008925;28;20053;-71
2022/03/26 03:01:41;;;;;;;0.47;0.47;;;2.20;99.90;;;;;;4992981;28;20038;-71
2022/03/26 03:04:07;;;;;;;0.80;0.80;;;2.20;99.90;;;;;;5007940;28;20065;-71
2022/03/26 03:06:34;;;;;;;5.22;4.82;;;2.10;99.90;;;;;;4992566;28;20084;-71
2022/03/26 03:09:01;;;;;;;2.70;2.50;;;2.10;99.90;;;;;;5008034;28;20073;-71
2022/03/26 03:11:27;;;;;;;11.18;7.15;;;2.10;99.90;;;;;;4993517;28;20514;-71
2022/03/26 03:13:52;;;;;;;0.50;0.50;;;2.10;99.90;;;;;;5009235;28;20041;-71
2022/03/26 03:16:18;;;;;;;0.75;0.75;;;2.00;99.90;;;;;;4991622;28;20498;-71
2022/03/26 03:18:44;;;;;;;110.03;50.25;;;2.00;99.90;;;;;;4991933;28;20038;-71
2022/03/26 03:21:09;;;;;;;0.70;0.70;;;2.00;99.90;;;;;;4990822;28;20038;-71
2022/03/26 03:23:35;;;;;;;2.05;1.95;;;1.90;99.90;;;;;;5008585;28;20488;-71
2022/03/26 03:26:01;;;;;;;0.73;0.73;;;2.00;99.90;;;;;;4992564;28;20525;-72
2022/03/26 03:28:26;;;;;;;1.60;1.58;;;2.00;99.90;;;;;;5008895;28;20050;-72
2022/03/26 03:30:52;;;;;;;1.73;1.67;;;1.90;99.90;;;;;;5006692;28;20509;-72
2022/03/26 03:33:18;;;;;;;5.63;1.63;;;1.90;99.90;;;;;;4991992;28;20038;-71
2022/03/26 03:35:44;;;;;;;10.95;1.33;;;1.80;99.90;;;;;;4992428;28;20045;-71
2022/03/26 03:38:09;;;;;;;1.60;1.52;;;1.90;99.90;;;;;;5009196;28;20497;-72
2022/03/26 03:40:35;;;;;;;4.00;1.20;;;1.90;99.90;;;;;;5008699;28;20048;-72
2022/03/26 03:43:01;;;;;;;5.80;3.75;;;1.80;99.90;;;;;;4992069;28;20418;-72
2022/03/26 03:45:26;;;;;;;3.13;2.75;;;1.80;99.90;;;;;;5008897;28;20041;-72
2022/03/26 03:47:52;;;;;;;0.50;0.50;;;1.80;99.90;;;;;;4990249;28;20033;-72
2022/03/26 03:50:18;;;;;;;0.40;0.40;;;1.80;99.90;;;;;;5002080;28;20048;-73
2022/03/26 03:52:44;;;;;;;1.05;1.05;;;1.80;99.90;;;;;;5008841;28;20068;-72
2022/03/26 03:55:11;;;;;;;0.70;0.70;;;1.80;99.90;;;;;;4991856;28;20046;-72
2022/03/26 03:57:42;;;;;;;0.50;0.50;;;1.80;99.90;;;;;;4992063;28;20128;-72
2022/03/26 04:00:08;;;;;;;1.42;1.42;;;1.70;99.90;;;;;;4991862;28;20069;-72
2022/03/26 04:02:34;;;;;;;1.60;1.50;;;1.70;99.90;;;;;;4991253;28;20053;-72
2022/03/26 04:05:00;;;;;;;0.40;0.40;;;1.70;99.90;;;;;;4991189;28;20046;-72
2022/03/26 04:07:25;;;;;;;18.90;8.45;;;1.70;99.90;;;;;;5008446;28;20112;-71
2022/03/26 04:09:51;;;;;;;10.30;6.93;;;1.70;99.90;;;;;;5007822;28;20352;-71
2022/03/26 04:12:17;;;;;;;14.23;9.23;;;1.80;99.90;;;;;;4990696;28;20052;-72
2022/03/26 04:14:44;;;;;;;11.90;6.05;;;1.90;99.90;;;;;;4991719;28;20057;-71
2022/03/26 04:17:12;;;;;;;1.00;1.00;;;1.90;99.90;;;;;;4990066;28;20573;-72
2022/03/26 04:19:39;;;;;;;0.70;0.70;;;1.90;99.90;;;;;;4980353;28;20038;-72
2022/03/26 04:22:08;;;;;;;0.63;0.63;;;1.90;99.90;;;;;;4991765;28;20034;-72
2022/03/26 04:24:36;;;;;;;2.42;2.33;;;1.90;99.90;;;;;;5005323;28;20831;-72
2022/03/26 04:27:03;;;;;;;9.85;4.25;;;1.90;99.90;;;;;;5007424;28;20054;-72
2022/03/26 04:29:29;;;;;;;2.65;2.55;;;1.80;99.90;;;;;;5008307;28;20045;-73
2022/03/26 04:31:55;;;;;;;0.60;0.60;;;1.80;99.90;;;;;;4991466;28;20387;-72
2022/03/26 04:34:20;;;;;;;0.85;0.85;;;1.70;99.90;;;;;;5007229;28;20057;-72
2022/03/26 04:36:46;;;;;;;0.70;0.70;;;1.70;99.90;;;;;;5008208;28;20041;-72
2022/03/26 04:39:12;;;;;;;0.73;0.73;;;1.70;99.90;;;;;;5004192;28;20104;-72
2022/03/26 04:41:37;;;;;;;1.10;1.10;;;1.70;99.90;;;;;;4993903;28;20042;-71
2022/03/26 04:44:03;;;;;;;0.40;0.40;;;1.60;99.90;;;;;;5004358;28;20041;-71
2022/03/26 04:46:29;;;;;;;0.43;0.43;;;1.60;99.90;;;;;;4992170;28;20041;-71
2022/03/26 04:48:55;;;;;;;2.63;2.25;;;1.50;99.90;;;;;;4991141;28;20026;-72
2022/03/26 04:51:20;;;;;;;0.60;0.60;;;1.60;99.90;;;;;;5008112;28;20375;-73
2022/03/26 04:53:46;;;;;;;0.50;0.50;;;1.50;99.90;;;;;;5006715;28;20506;-72
2022/03/26 04:56:11;;;;;;;0.55;0.55;;;1.50;99.90;;;;;;4990895;28;20081;-73
2022/03/26 04:58:37;;;;;;;0.40;0.40;;;1.50;99.90;;;;;;5007640;28;20120;-73
2022/03/26 05:01:04;;;;;;;2.75;2.55;;;1.50;99.90;;;;;;4990709;28;20045;-72
2022/03/26 05:03:30;;;;;;;11.50;6.95;;;1.50;99.90;;;;;;4990502;28;20128;-73
2022/03/26 05:05:56;;;;;;;10.77;8.77;;;1.50;99.90;;;;;;5007061;28;20176;-72
2022/03/26 05:08:21;;;;;;;1.35;1.35;;;1.60;99.90;;;;;;5006776;28;20490;-72
2022/03/26 05:10:47;;;;;;;0.45;0.45;;;1.60;99.90;;;;;;5007117;28;20096;-73
2022/03/26 05:13:13;;;;;;;0.52;0.52;;;1.70;99.90;;;;;;4991968;28;20049;-72
2022/03/26 05:15:38;;;;;;;0.47;0.47;;;1.70;99.90;;;;;;5006338;28;20103;-72
2022/03/26 05:18:04;;;;;;;0.55;0.55;;;1.60;99.90;;;;;;4990765;28;20103;-72
2022/03/26 05:20:30;;;;;;;1.30;1.30;;;1.60;99.90;;;;;;4982912;28;20739;-72
2022/03/26 05:22:56;;;;;;;2.53;2.42;;;1.50;99.90;;;;;;5003676;28;20045;-72
2022/03/26 05:25:21;;;;;;;1.02;1.02;;;1.50;99.90;;;;;;5007127;28;20049;-72
2022/03/26 05:27:49;;;;;;;0.40;0.40;;;1.40;99.90;;;;;;5007010;28;20073;-72
2022/03/26 05:30:18;;;;;;;0.95;0.95;;;1.40;99.90;;;;;;4987080;28;20038;-72
2022/03/26 05:32:43;;;;;;;1.77;1.65;;;1.40;99.90;;;;;;4993831;28;20044;-72
2022/03/26 05:35:16;;;;;;;0.45;0.45;;;1.40;99.90;;;;;;5007043;28;20050;-72
2022/03/26 05:37:46;;;;;;;4.82;4.43;;;1.40;99.90;;;;;;4989702;28;20034;-72
2022/03/26 05:40:15;;;;;;;0.65;0.65;;;1.40;99.90;;;;;;4978509;28;20307;-73
2022/03/26 05:42:40;;;;;;;0.90;0.90;;;1.50;99.90;;;;;;5006811;28;20092;-73
2022/03/26 05:45:07;;;;;;;3.80;1.90;;;1.50;99.90;;;;;;5007145;28;20430;-72
2022/03/26 05:47:34;;;;;;;0.50;0.50;;;1.60;99.90;;;;;;5022832;28;20045;-72
2022/03/26 05:50:00;;;;;;;0.60;0.60;;;1.60;99.90;;;;;;4990821;28;20040;-73
2022/03/26 05:52:25;;;;;;;0.50;0.50;;;1.60;99.90;;;;;;5006917;28;20057;-72
2022/03/26 05:54:51;;;;;;;0.57;0.57;;;1.60;99.90;;;;;;5006910;28;20042;-72
2022/03/26 05:57:18;;;;;;;0.60;0.60;;;1.70;99.90;;;;;;5006384;28;20133;-73
2022/03/26 05:59:44;;;;;;;1.58;1.52;;;1.70;99.90;;;;;;5006754;28;20042;-72
2022/03/26 06:02:12;;;;;;;0.50;0.50;;;1.70;99.90;;;;;;4990015;28;20052;-72
2022/03/26 06:04:38;;;;;;;0.93;0.93;;;1.80;99.90;;;;;;4987829;28;20065;-73
2022/03/26 06:07:04;;;;;;;3.85;3.63;;;1.80;99.90;;;;;;5018540;28;20073;-73
2022/03/26 06:09:29;;;;;;;31.00;22.63;;;1.90;99.90;;;;;;4996214;28;20180;-73
2022/03/26 06:11:55;;;;;;;1.75;1.73;;;1.90;99.90;;;;;;5010465;28;20143;-73
2022/03/26 06:14:21;;;;;;;1.85;1.75;;;2.00;99.90;;;;;;5010414;28;20050;-73
2022/03/26 06:16:47;;;;;;;0.50;0.50;;;2.10;99.90;;;;;;5009205;28;20041;-73
2022/03/26 06:19:16;;;;;;;0.65;0.65;;;2.10;99.90;;;;;;5026034;28;20041;-73
2022/03/26 06:21:41;;;;;;;0.60;0.60;;;2.20;99.90;;;;;;5010022;28;20037;-73
2022/03/26 06:24:07;;;;;;;3.72;3.42;;;2.20;99.90;;;;;;4993551;28;20399;-73
2022/03/26 06:26:34;;;;;;;9.00;6.90;;;2.40;99.90;;;;;;4993144;28;20050;-73
2022/03/26 06:29:00;;;;;;;0.93;0.93;;;2.70;99.90;;;;;;4993638;28;20034;-73
2022/03/26 06:31:26;;;;;;;0.60;0.60;;;2.90;99.90;;;;;;4993501;28;20568;-73
2022/03/26 06:33:51;;;;;;;1.25;1.25;;;2.90;99.90;;;;;;5010230;28;20038;-73
2022/03/26 06:36:18;;;;;;;0.77;0.77;;;3.00;99.90;;;;;;5010069;28;20511;-73
2022/03/26 06:38:44;;;;;;;0.63;0.63;;;3.00;99.90;;;;;;5010042;28;20045;-73
2022/03/26 06:41:11;;;;;;;0.70;0.70;;;3.10;99.90;;;;;;4993207;28;20042;-73
2022/03/26 06:43:38;;;;;;;0.40;0.40;;;3.20;99.90;;;;;;4993424;28;20619;-72
2022/03/26 06:46:04;;;;;;;0.80;0.80;;;3.30;99.90;;;;;;4993097;28;20041;-70
2022/03/26 06:48:31;;;;;;;1.58;1.52;;;3.40;99.90;;;;;;4993644;28;20381;-72
2022/03/26 06:50:57;;;;;;;0.50;0.50;;;3.60;99.90;;;;;;4992817;28;20083;-72
2022/03/26 06:53:23;;;;;;;0.90;0.90;;;3.80;99.90;;;;;;4991443;28;20436;-72
2022/03/26 06:55:49;;;;;;;7.82;5.20;;;3.90;99.90;;;;;;5009398;28;20044;-72
2022/03/26 06:58:15;;;;;;;14.63;7.20;;;4.10;99.90;;;;;;4990622;28;20049;-72
2022/03/26 07:00:40;;;;;;;0.90;0.90;;;4.40;99.90;;;;;;5008187;28;20054;-72
2022/03/26 07:03:06;;;;;;;41.42;20.55;;;4.70;99.90;;;;;;5000670;28;20038;-72
2022/03/26 07:05:31;;;;;;;8.75;7.80;;;5.00;99.90;;;;;;4988622;28;20030;-72
2022/03/26 07:07:57;;;;;;;6.38;5.88;;;5.30;99.90;;;;;;4973837;28;20137;-72
2022/03/26 07:10:23;;;;;;;20.88;12.18;;;5.60;99.90;;;;;;4997946;28;20450;-72
2022/03/26 07:12:49;;;;;;;45.45;21.77;;;5.80;99.90;;;;;;4999117;28;20042;-72
2022/03/26 07:15:15;;;;;;;58.72;19.38;;;6.10;99.90;;;;;;5009352;28;20037;-72
2022/03/26 07:17:44;;;;;;;74.32;35.08;;;6.30;99.90;;;;;;5022595;28;20089;-72
2022/03/26 07:20:11;;;;;;;10.48;4.75;;;6.50;99.90;;;;;;4991537;28;20046;-72
2022/03/26 07:22:37;;;;;;;45.08;25.92;;;6.70;99.90;;;;;;4983263;28;20565;-72
2022/03/26 07:25:04;;;;;;;36.17;24.15;;;6.90;99.90;;;;;;5008706;28;20464;-72
2022/03/26 07:27:34;;;;;;;40.83;19.08;;;7.20;99.90;;;;;;5002921;28;20433;-72
2022/03/26 07:29:59;;;;;;;22.77;12.10;;;7.40;99.90;;;;;;4992862;28;20508;-72
2022/03/26 07:32:25;;;;;;;14.15;8.77;;;7.60;99.90;;;;;;4991780;28;20033;-72
2022/03/26 07:34:52;;;;;;;28.27;16.40;;;7.70;99.90;;;;;;5009104;28;20124;-72
2022/03/26 07:37:18;;;;;;;34.58;18.35;;;7.80;99.90;;;;;;5008039;28;20496;-72
2022/03/26 07:39:44;;;;;;;4.90;4.47;;;8.00;99.90;;;;;;5025292;28;20149;-72
2022/03/26 07:42:09;;;;;;;26.25;15.90;;;8.10;99.90;;;;;;5007576;28;20568;-72
2022/03/26 07:44:35;;;;;;;26.70;11.90;;;8.30;99.90;;;;;;5007171;28;20538;-72
2022/03/26 07:47:01;;;;;;;21.05;12.68;;;8.40;99.90;;;;;;4991244;28;20417;-72
2022/03/26 07:49:27;;;;;;;21.05;9.70;;;8.60;99.90;;;;;;4990653;28;20030;-72
2022/03/26 07:51:52;;;;;;;57.10;23.08;;;8.70;99.90;;;;;;5006131;28;20180;-72
2022/03/26 07:54:18;;;;;;;7.82;6.55;;;9.20;99.90;;;;;;5021632;28;20118;-72
2022/03/26 07:56:43;;;;;;;65.53;15.20;;;9.60;99.90;;;;;;5002624;28;20124;-73
2022/03/26 07:59:09;;;;;;;43.28;21.48;;;9.80;99.90;;;;;;4992345;28;20045;-71
2022/03/26 08:01:35;;;;;;;32.40;17.15;;;9.80;99.90;;;;;;5007653;28;20475;-72
2022/03/26 08:04:01;;;;;;;19.50;12.30;;;9.70;99.90;;;;;;4988533;28;20052;-72
2022/03/26 08:06:27;;;;;;;22.92;14.23;;;9.70;99.90;;;;;;4992082;28;20053;-72
2022/03/26 08:08:53;;;;;;;32.53;14.43;;;9.90;99.90;;;;;;5008531;28;20042;-72
2022/03/26 08:11:19;;;;;;;7.00;5.25;;;10.00;99.90;;;;;;5005400;28;20035;-72
2022/03/26 08:13:44;;;;;;;12.38;7.97;;;10.10;99.90;;;;;;4992374;28;20033;-72
2022/03/26 08:16:10;;;;;;;49.72;21.35;;;10.20;99.90;;;;;;5008739;28;20126;-72
2022/03/26 08:18:37;;;;;;;23.02;12.50;;;10.20;99.90;;;;;;5009581;28;20076;-72
2022/03/26 08:21:03;;;;;;;13.20;6.70;;;10.30;99.90;;;;;;5006563;28;20057;-72
2022/03/26 08:23:29;;;;;;;29.40;12.18;;;10.50;99.90;;;;;;5023180;28;20503;-72
2022/03/26 08:28:39;;;;;;;29.95;14.18;;;10.80;99.90;;;;;;4988481;28;20129;-72
2022/03/26 08:31:05;;;;;;;17.20;8.85;;;11.00;99.90;;;;;;4992751;28;20081;-72
2022/03/26 08:33:30;;;;;;;12.05;6.47;;;11.30;99.90;;;;;;4991095;28;20540;-72
2022/03/26 08:35:56;;;;;;;18.27;10.55;;;11.40;99.90;;;;;;4992119;28;20119;-72
2022/03/26 08:38:22;;;;;;;15.82;3.92;;;11.50;99.90;;;;;;4988818;28;20042;-72
2022/03/26 08:40:48;;;;;;;12.82;7.88;;;11.80;99.90;;;;;;4998710;28;20057;-72
2022/03/26 08:43:15;;;;;;;17.88;9.38;;;12.20;99.90;;;;;;5006885;28;20549;-72
2022/03/26 08:45:41;;;;;;;8.65;5.65;;;12.40;99.90;;;;;;4992202;28;20450;-72
2022/03/26 08:48:08;;;;;;;24.60;8.70;;;12.60;99.90;;;;;;5007986;28;20056;-72
2022/03/26 08:50:34;;;;;;;3.45;2.70;;;12.60;99.90;;;;;;4991917;28;20038;-73
2022/03/26 08:53:00;;;;;;;2.28;2.17;;;12.70;99.90;;;;;;4991997;28;20750;-74
2022/03/26 08:55:26;;;;;;;20.30;11.13;;;13.10;99.90;;;;;;4995177;28;20765;-73
2022/03/26 08:57:52;;;;;;;1.08;0.98;;;13.40;99.90;;;;;;4971962;28;20043;-72
2022/03/26 09:00:18;;;;;;;8.27;5.22;;;13.80;99.90;;;;;;4995403;28;20552;-72
2022/03/26 09:02:45;;;;;;;19.15;9.55;;;14.70;99.90;;;;;;4988191;28;20472;-73
2022/03/26 09:05:14;;;;;;;1.63;1.50;;;15.50;99.90;;;;;;5003785;28;20072;-73
2022/03/26 09:07:40;;;;;;;30.77;15.10;;;16.10;99.90;;;;;;4995091;28;20487;-73
2022/03/26 09:10:06;;;;;;;28.27;13.43;;;16.60;99.90;;;;;;4992743;28;20046;-73
2022/03/26 09:12:33;;;;;;;11.55;4.18;;;16.80;99.90;;;;;;4990617;28;20041;-73
2022/03/26 09:14:59;;;;;;;21.55;7.25;;;16.90;99.90;;;;;;4999375;28;20041;-73
2022/03/26 09:17:25;;;;;;;48.58;11.48;;;17.10;99.90;;;;;;4977580;28;20050;-73
2022/03/26 09:19:50;;;;;;;8.00;6.43;;;17.30;99.90;;;;;;4980543;28;20137;-74
2022/03/26 09:22:16;;;;;;;12.60;7.57;;;17.50;99.40;;;;;;4988428;28;20141;-73
2022/03/26 09:24:42;;;;;;;12.05;6.25;;;17.70;99.50;;;;;;5001921;28;20053;-73
2022/03/26 09:27:09;;;;;;;4.32;3.65;;;17.90;99.40;;;;;;4990856;28;20046;-73
2022/03/26 09:29:35;;;;;;;24.23;11.57;;;18.10;99.30;;;;;;5006106;28;20393;-73
2022/03/26 09:32:00;;;;;;;3.22;2.60;;;18.30;99.50;;;;;;4990823;28;20057;-73
2022/03/26 09:34:26;;;;;;;4.40;3.70;;;18.40;96.60;;;;;;5007425;28;20038;-73
2022/03/26 09:36:53;;;;;;;6.55;4.88;;;18.50;99.10;;;;;;5004987;28;20450;-73
2022/03/26 09:39:19;;;;;;;27.70;15.38;;;18.60;97.70;;;;;;5016998;28;20073;-72
2022/03/26 09:41:46;;;;;;;16.25;6.18;;;18.60;96.10;;;;;;4986253;28;20064;-73
2022/03/26 09:44:13;;;;;;;6.70;5.53;;;18.40;95.10;;;;;;4988669;28;20375;-73
2022/03/26 09:46:38;;;;;;;8.18;5.25;;;18.40;95.20;;;;;;5010730;28;20608;-73
2022/03/26 09:49:05;;;;;;;15.20;8.13;;;18.30;94.70;;;;;;5009905;28;20072;-73
2022/03/26 09:51:32;;;;;;;4.30;3.55;;;18.30;93.50;;;;;;4993271;28;20092;-73
2022/03/26 09:53:58;;;;;;;5.45;4.93;;;18.30;94.20;;;;;;4990090;28;20042;-73
2022/03/26 09:56:24;;;;;;;6.78;2.70;;;18.30;92.50;;;;;;5003611;28;20484;-73
2022/03/26 09:58:53;;;;;;;2.70;2.50;;;18.40;88.40;;;;;;4993601;28;20417;-73
2022/03/26 10:01:23;;;;;;;17.10;6.18;;;18.40;90.10;;;;;;5010178;28;20050;-73
2022/03/26 10:04:08;;;;;;;15.90;8.10;;;18.40;87.90;;;;;;4993421;28;20045;-72
2022/03/26 10:06:34;;;;;;;7.05;4.47;;;18.50;88.90;;;;;;5009906;28;20505;-72
2022/03/26 10:09:00;;;;;;;6.78;4.10;;;18.50;87.10;;;;;;5010846;28;20346;-72
2022/03/26 10:11:30;;;;;;;6.95;5.25;;;18.30;82.00;;;;;;5010513;28;20040;-73
2022/03/26 10:13:56;;;;;;;20.55;10.80;;;18.30;86.70;;;;;;4989838;28;20399;-73
2022/03/26 10:16:22;;;;;;;3.00;2.70;;;18.30;88.80;;;;;;4991669;28;20045;-72
2022/03/26 10:18:48;;;;;;;11.00;5.53;;;18.40;88.60;;;;;;5003458;28;20073;-73
2022/03/26 10:21:21;;;;;;;12.43;7.15;;;18.40;87.10;;;;;;4993926;28;20062;-73
2022/03/26 10:23:52;;;;;;;7.10;4.43;;;18.30;86.20;;;;;;5011221;28;20050;-72
2022/03/26 10:26:25;;;;;;;5.70;3.45;;;18.30;86.10;;;;;;5023518;28;20382;-72
2022/03/26 10:28:52;;;;;;;3.03;2.50;;;18.20;88.40;;;;;;5011879;28;20034;-73
2022/03/26 10:34:19;;;;;;;4.90;2.55;;;18.30;81.40;;;;;;5013606;28;20041;-73
2022/03/26 10:36:47;;;;;;;10.00;4.38;;;18.00;82.60;;;;;;4996240;28;20057;-72
2022/03/26 10:39:28;;;;;;;7.00;3.90;;;17.90;83.50;;;;;;4997049;28;20029;-73
2022/03/26 10:41:54;;;;;;;9.10;5.07;;;17.90;83.50;;;;;;4997518;28;20033;-73
2022/03/26 10:44:28;;;;;;;7.00;3.58;;;18.00;82.20;;;;;;5013342;28;20436;-72
2022/03/26 10:47:01;;;;;;;2.42;1.95;;;18.00;80.60;;;;;;4996664;28;20092;-72
2022/03/26 10:49:40;;;;;;;5.78;2.85;;;17.90;82.10;;;;;;4989938;28;20033;-73
2022/03/26 10:52:16;;;;;;;7.03;4.72;;;17.80;81.10;;;;;;4993696;28;20088;-73
2022/03/26 10:54:42;;;;;;;6.93;3.13;;;17.90;79.70;;;;;;4993842;28;20394;-73
2022/03/26 10:57:08;;;;;;;4.50;3.17;;;17.80;82.20;;;;;;4992894;28;20046;-73
2022/03/26 10:59:34;;;;;;;2.28;1.63;;;17.90;82.80;;;;;;5005744;28;20053;-73
2022/03/26 11:02:00;;;;;;;2.13;1.90;;;18.20;81.10;;;;;;4993590;28;20096;-73
2022/03/26 11:04:27;;;;;;;4.93;3.28;;;18.20;79.20;;;;;;4993101;28;20100;-72
2022/03/26 11:06:54;;;;;;;0.80;0.80;;;18.20;77.50;;;;;;4986329;28;20076;-73
2022/03/26 11:09:20;;;;;;;0.82;0.80;;;18.20;74.90;;;;;;4993912;28;20689;-73
2022/03/26 11:11:49;;;;;;;3.83;2.22;;;18.20;77.30;;;;;;5011775;28;20056;-73
2022/03/26 11:14:19;;;;;;;2.15;1.58;;;18.30;76.90;;;;;;5012281;28;20497;-73
2022/03/26 11:16:54;;;;;;;3.83;1.55;;;18.30;74.10;;;;;;5012376;28;20041;-73
2022/03/26 11:19:37;;;;;;;2.25;1.85;;;18.40;75.40;;;;;;5009009;28;20041;-73
2022/03/26 11:22:12;;;;;;;2.00;1.20;;;18.40;74.00;;;;;;4998443;28;20120;-73
2022/03/26 11:24:43;;;;;;;3.90;1.13;;;18.40;76.70;;;;;;4993035;28;20066;-73
2022/03/26 11:27:23;;;;;;;4.97;3.15;;;18.50;75.50;;;;;;5000572;28;20053;-73
2022/03/26 11:29:56;;;;;;;6.28;2.97;;;18.40;75.00;;;;;;4999059;28;20080;-72
2022/03/26 11:32:35;;;;;;;4.85;2.10;;;18.50;75.20;;;;;;5005014;28;20042;-73
2022/03/26 11:35:04;;;;;;;10.88;3.38;;;18.40;73.40;;;;;;4995737;28;20389;-73
2022/03/26 11:37:30;;;;;;;10.02;3.88;;;18.40;76.60;;;;;;5003594;28;20279;-72
2022/03/26 11:39:56;;;;;;;2.38;2.17;;;18.60;75.30;;;;;;5011797;28;20412;-73
2022/03/26 11:42:24;;;;;;;4.25;2.17;;;18.50;76.20;;;;;;4996189;28;20077;-73
2022/03/26 11:50:41;;;;;;;0.95;0.50;;;18.60;76.10;;;;;;5011078;28;20049;-74
2022/03/26 11:53:11;;;;;;;1.90;1.48;;;18.80;74.70;;;;;;4996072;28;20460;-73
2022/03/26 11:55:42;;;;;;;3.35;1.65;;;18.90;76.60;;;;;;5011713;28;20093;-72
2022/03/26 11:58:26;;;;;;;1.48;1.38;;;18.90;74.50;;;;;;4995273;28;20042;-72
2022/03/26 12:00:59;;;;;;;2.45;1.90;;;18.80;72.00;;;;;;4999336;28;20041;-72
2022/03/26 12:03:26;;;;;;;2.65;1.90;;;18.70;73.80;;;;;;5005135;28;20136;-72
2022/03/26 12:08:57;;;;;;;2.88;1.48;;;18.70;76.40;;;;;;5010800;28;20041;-72
2022/03/26 12:11:28;;;;;;;1.88;1.17;;;18.70;73.10;;;;;;5011005;28;20041;-72
2022/03/26 12:14:09;;;;;;;2.08;1.33;;;18.60;72.20;;;;;;4994712;28;20094;-72
2022/03/26 12:16:50;;;;;;;0.30;0.30;;;18.50;71.30;;;;;;5011512;28;20049;-72
2022/03/26 12:19:46;;;;;;;0.80;0.75;;;18.50;73.00;;;;;;5025929;28;20063;-72
2022/03/26 12:22:26;;;;;;;0.30;0.30;;;18.70;74.40;;;;;;5006157;28;20503;-72
2022/03/26 12:24:54;;;;;;;1.60;1.25;;;18.80;73.30;;;;;;4991425;28;20410;-72
2022/03/26 12:27:20;;;;;;;0.60;0.60;;;18.70;70.40;;;;;;5024225;28;20049;-73
2022/03/26 12:29:46;;;;;;;0.68;0.68;;;18.60;72.40;;;;;;5007886;28;20091;-73
2022/03/26 12:32:13;;;;;;;4.03;1.20;;;18.50;71.90;;;;;;4990610;28;20033;-72
2022/03/26 12:34:53;;;;;;;0.57;0.57;;;18.40;70.20;;;;;;5006104;28;20034;-73
2022/03/26 12:37:19;;;;;;;3.20;1.10;;;18.10;73.10;;;;;;4978004;28;20048;-72
2022/03/26 12:39:45;;;;;;;2.35;0.77;;;18.20;75.30;;;;;;5018472;28;20292;-73
2022/03/26 12:42:11;;;;;;;1.15;1.05;;;18.30;76.70;;;;;;5007518;28;20045;-73
2022/03/26 12:44:37;;;;;;;0.30;0.30;;;18.50;75.40;;;;;;4987472;28;20042;-73
2022/03/26 12:47:03;;;;;;;3.50;1.75;;;18.50;75.40;;;;;;5006422;28;20449;-73
2022/03/26 12:49:28;;;;;;;0.30;0.30;;;18.50;73.50;;;;;;4989842;28;20041;-73
2022/03/26 12:51:55;;;;;;;0.30;0.30;;;18.40;76.10;;;;;;5008030;28;20038;-73
2022/03/26 12:54:22;;;;;;;1.23;1.00;;;18.30;75.10;;;;;;5017141;28;20049;-73
2022/03/26 12:56:52;;;;;;;0.52;0.52;;;18.20;75.90;;;;;;4990402;28;20065;-73
2022/03/26 12:59:18;;;;;;;1.85;0.85;;;18.30;77.80;;;;;;5006567;28;20454;-73
2022/03/26 13:01:44;;;;;;;0.95;0.93;;;18.20;78.50;;;;;;5021847;28;20486;-73
2022/03/26 13:04:10;;;;;;;1.95;1.45;;;18.20;77.60;;;;;;5006872;28;20046;-73